Roy Baker — WDC2698 — position and weather

sailwx.info

Track history (hours):
 
Tides and Currents Weather Stations Pressure Air Temp Water Temp Dewpoint Dewpoint Depression Visibility Wind Speed Wind Dir Waves Ship Positions

Roy Baker

Owner: Kirby Inland Marine LP, Houston, TX. More information available from US FCC via Universal Licensing System and Coast Guard Vessel Documentation Center.

Last reported at 2014-Oct-16 11:33 UTC. Time now 2014-Oct-20 04:38 UTC.
Position N 29°50' W 093°59'.

Length 24 m; draft 2.3 m.

Type: Towing. MMSI: 366996540.

Date/timePositionNaut miles runAvg speedWind from/ knotsBaromVisibWave heightAir tempDewpointWater temp
2014-Oct-16 11:33N 29°50' W 093°59'0 0.0
2014-Oct-15 14:32N 29°50' W 093°59'  
2014-Oct-07 15:32N 29°39' W 091°24'7 7.6
2014-Oct-07 14:34N 29°39' W 091°15'6 5.9
2014-Oct-07 13:34N 29°41' W 091°09'0 0.0
2014-Oct-07 12:33N 29°41' W 091°09'0 0.0
2014-Oct-07 11:33N 29°41' W 091°09'1 1.4
2014-Oct-07 10:33N 29°40' W 091°08'4 3.9
2014-Oct-07 09:34N 29°38' W 091°04'4 4.4
2014-Oct-07 08:33N 29°37' W 090°59'5 4.8
2014-Oct-07 07:34N 29°34' W 090°55'10 4.9
2014-Oct-07 05:31N 29°34' W 090°44'  
Track history (hours):
 
Tides and Currents Weather Stations Pressure Air Temp Water Temp Dewpoint Dewpoint Depression Visibility Wind Speed Wind Dir Waves Ship Positions

Roy Baker

Owner: Kirby Inland Marine LP, Houston, TX. More information available from US FCC via Universal Licensing System and Coast Guard Vessel Documentation Center.

Last reported at 2014-Oct-16 11:33 UTC. Time now 2014-Oct-20 04:38 UTC.
Position N 29°50' W 093°59'.

Length 24 m; draft 2.3 m.

Type: Towing. MMSI: 366996540.

Date/timePositionNaut miles runAvg speedWind from/ knotsBaromVisibWave heightAir tempDewpointWater temp
2014-Oct-16 11:33N 29°50' W 093°59'0 0.0
2014-Oct-15 14:32N 29°50' W 093°59'  
2014-Oct-07 15:32N 29°39' W 091°24'7 7.6
2014-Oct-07 14:34N 29°39' W 091°15'6 5.9
2014-Oct-07 13:34N 29°41' W 091°09'0 0.0
2014-Oct-07 12:33N 29°41' W 091°09'0 0.0
2014-Oct-07 11:33N 29°41' W 091°09'1 1.4
2014-Oct-07 10:33N 29°40' W 091°08'4 3.9
2014-Oct-07 09:34N 29°38' W 091°04'4 4.4
2014-Oct-07 08:33N 29°37' W 090°59'5 4.8
2014-Oct-07 07:34N 29°34' W 090°55'10 4.9
2014-Oct-07 05:31N 29°34' W 090°44'  

Dump ship's entire track history